createdAt,value
2018-06-28T00:01:42.172Z,90.50
2018-06-28T00:04:23.168Z,90.50
2018-06-28T00:07:04.400Z,91.20
2018-06-28T00:09:48.652Z,91.20
2018-06-28T00:15:10.985Z,91.40
2018-06-28T00:20:34.941Z,91.50
2018-06-28T00:23:15.107Z,91.60
2018-06-28T00:25:55.980Z,91.80
2018-06-28T00:28:35.923Z,92.10
2018-06-28T00:31:18.251Z,92.40
2018-06-28T00:33:55.351Z,92.60
2018-06-28T00:36:41.166Z,92.60
2018-06-28T00:39:21.340Z,92.40
2018-06-28T00:42:03.010Z,92.60
2018-06-28T00:52:49.022Z,93.20
2018-06-28T00:55:28.056Z,93.60
2018-06-28T00:58:07.522Z,93.70
2018-06-28T01:03:34.797Z,94.20
2018-06-28T01:06:17.038Z,94.20
2018-06-28T01:11:37.294Z,94.20
2018-06-28T01:14:17.380Z,94.40
2018-06-28T01:16:58.113Z,94.70
2018-06-28T01:22:25.641Z,94.80
2018-06-28T01:25:06.562Z,94.80
2018-06-28T01:27:48.143Z,94.90
2018-06-28T01:30:30.697Z,95.40
2018-06-28T01:33:12.417Z,95.60
2018-06-28T01:38:32.863Z,95.70
2018-06-28T01:41:14.518Z,95.80
2018-06-28T01:43:55.069Z,96.30
2018-06-28T01:46:35.709Z,96.10
2018-06-28T01:49:14.438Z,96.10
2018-06-28T01:51:58.773Z,96.50
2018-06-28T01:54:40.857Z,96.40
2018-06-28T01:57:23.325Z,96.20
2018-06-28T02:00:05.898Z,96.50
2018-06-28T02:05:32.687Z,96.70
2018-06-28T02:08:12.231Z,96.40
2018-06-28T02:10:54.806Z,96.50
2018-06-28T02:13:33.675Z,96.70
2018-06-28T02:16:10.848Z,96.70
2018-06-28T02:18:51.515Z,97.00
2018-06-28T02:21:30.840Z,97.20
2018-06-28T02:24:10.962Z,97.40
2018-06-28T02:26:56.489Z,97.80
2018-06-28T02:29:39.470Z,97.50
2018-06-28T02:32:21.876Z,97.80
2018-06-28T02:37:45.770Z,97.50
2018-06-28T02:40:25.544Z,97.60
2018-06-28T02:43:01.953Z,98.00
2018-06-28T02:45:47.125Z,97.70
2018-06-28T02:48:28.590Z,97.50
2018-06-28T02:51:13.481Z,97.90
2018-06-28T02:56:38.123Z,97.70
2018-06-28T02:59:19.329Z,97.90
2018-06-28T03:02:03.511Z,98.20
2018-06-28T03:04:46.024Z,97.80
2018-06-28T03:07:26.502Z,97.80
2018-06-28T03:10:06.163Z,98.00
2018-06-28T03:12:47.904Z,98.00
2018-06-28T03:15:28.718Z,98.10
2018-06-28T03:18:06.991Z,98.20
2018-06-28T03:20:46.678Z,98.00
2018-06-28T03:26:05.450Z,98.30
2018-06-28T03:28:45.499Z,98.40
2018-06-28T03:31:29.029Z,98.50
2018-06-28T03:34:12.856Z,98.90
2018-06-28T03:39:38.082Z,99.00
2018-06-28T03:42:19.936Z,98.90
2018-06-28T03:44:56.277Z,98.90
2018-06-28T03:47:36.290Z,99.00
2018-06-28T03:50:16.904Z,99.00
2018-06-28T03:52:56.866Z,98.80
2018-06-28T03:58:23.172Z,99.10
2018-06-28T04:01:07.432Z,98.80
2018-06-28T04:03:48.934Z,99.00
2018-06-28T04:06:29.661Z,99.00
2018-06-28T04:09:13.131Z,98.80
2018-06-28T04:12:03.349Z,98.90
2018-06-28T04:14:44.551Z,98.90
2018-06-28T04:25:37.803Z,99.60
2018-06-28T04:28:16.314Z,99.70
2018-06-28T04:30:53.179Z,99.60
2018-06-28T04:33:29.106Z,99.60
2018-06-28T04:36:11.838Z,99.40
2018-06-28T04:38:50.719Z,99.00
2018-06-28T04:41:31.224Z,98.00
2018-06-28T04:44:12.387Z,96.80
2018-06-28T04:46:54.515Z,95.20
2018-06-28T04:49:35.436Z,94.90
2018-06-28T04:52:21.221Z,94.40
2018-06-28T04:55:01.174Z,94.80
2018-06-28T04:57:43.271Z,93.20
2018-06-28T05:00:23.621Z,92.00
2018-06-28T05:03:04.416Z,92.20
2018-06-28T05:05:45.596Z,92.10
2018-06-28T05:08:27.202Z,91.70
2018-06-28T05:11:08.272Z,88.40
2018-06-28T05:13:51.229Z,82.00
2018-06-28T05:19:16.411Z,72.30
2018-06-28T05:22:00.886Z,69.60
2018-06-28T05:24:44.288Z,66.60
2018-06-28T05:27:25.064Z,66.60
2018-06-28T05:30:06.006Z,66.60
2018-06-28T05:32:43.090Z,65.70
2018-06-28T05:35:25.380Z,66.60
2018-06-28T05:38:05.832Z,69.90
2018-06-28T05:40:50.445Z,74.10
2018-06-28T05:43:31.753Z,80.90
2018-06-28T05:46:16.540Z,81.80
2018-06-28T05:48:55.933Z,81.90
2018-06-28T05:54:23.521Z,85.80
2018-06-28T05:56:58.934Z,87.70
2018-06-28T05:59:38.552Z,87.40
2018-06-28T06:02:19.495Z,87.50
2018-06-28T06:04:56.394Z,87.90
2018-06-28T06:07:32.571Z,87.60
2018-06-28T06:12:59.620Z,88.00
2018-06-28T06:21:09.062Z,89.40
2018-06-28T06:29:11.357Z,91.10
2018-06-28T06:31:51.879Z,91.00
2018-06-28T06:34:32.225Z,90.80
2018-06-28T06:37:14.825Z,90.90
2018-06-28T06:39:42.357Z,91.10
2018-06-28T06:42:09.311Z,91.10
2018-06-28T06:44:36.305Z,91.40
2018-06-28T06:47:03.324Z,91.50
2018-06-28T06:49:30.261Z,91.80
2018-06-28T06:51:57.962Z,91.50
2018-06-28T06:54:24.914Z,91.50
2018-06-28T06:56:51.790Z,91.60
2018-06-28T06:59:18.725Z,91.50
2018-06-28T07:01:45.668Z,91.70
2018-06-28T07:04:12.547Z,91.70
2018-06-28T07:06:39.527Z,92.10
2018-06-28T07:09:06.389Z,91.70
2018-06-28T07:11:33.266Z,92.20
2018-06-28T07:14:00.222Z,91.80
2018-06-28T07:16:27.125Z,91.80
2018-06-28T07:18:54.072Z,91.60
2018-06-28T07:21:20.945Z,92.00
2018-06-28T07:23:52.500Z,91.30
2018-06-28T07:26:19.381Z,91.70
2018-06-28T07:28:54.020Z,91.40
2018-06-28T07:31:20.952Z,91.40
2018-06-28T07:34:03.552Z,91.90
2018-06-28T07:36:43.247Z,91.70
2018-06-28T07:39:17.155Z,91.80
2018-06-28T07:41:55.116Z,91.80
2018-06-28T07:44:23.350Z,92.10
2018-06-28T07:46:50.339Z,91.60
2018-06-28T07:49:25.190Z,90.70
2018-06-28T07:51:52.450Z,90.70
2018-06-28T07:54:28.043Z,90.80
2018-06-28T07:56:55.966Z,90.80
2018-06-28T07:59:22.889Z,90.40
2018-06-28T08:01:50.596Z,90.50
2018-06-28T08:04:17.959Z,90.50
2018-06-28T08:06:48.465Z,90.10
2018-06-28T08:09:29.907Z,89.40
2018-06-28T08:11:58.098Z,88.50
2018-06-28T08:14:27.658Z,88.40
2018-06-28T08:16:55.345Z,88.80
2018-06-28T08:19:26.810Z,86.80
2018-06-28T08:21:53.909Z,86.70
2018-06-28T08:24:21.342Z,87.70
2018-06-28T08:26:48.882Z,86.20
2018-06-28T08:29:28.796Z,83.20
2018-06-28T08:31:57.062Z,83.60
2018-06-28T08:34:24.213Z,84.10
2018-06-28T08:36:51.438Z,81.60
2018-06-28T08:39:18.968Z,80.40
2018-06-28T08:41:46.954Z,76.70
2018-06-28T08:44:14.172Z,76.70
2018-06-28T08:46:41.460Z,77.00
2018-06-28T08:49:08.914Z,77.70
2018-06-28T08:51:36.109Z,77.20
2018-06-28T08:54:03.422Z,73.20
2018-06-28T08:56:30.893Z,74.10
2018-06-28T08:58:58.074Z,72.60
2018-06-28T09:01:25.314Z,71.30
2018-06-28T09:03:52.747Z,69.90
2018-06-28T09:06:19.743Z,69.20
2018-06-28T09:08:47.290Z,69.50
2018-06-28T09:11:16.670Z,68.60
2018-06-28T09:13:44.332Z,70.70
2018-06-28T09:16:16.289Z,70.90
2018-06-28T09:18:44.090Z,67.90
2018-06-28T09:21:19.547Z,67.90
2018-06-28T09:23:47.133Z,68.70
2018-06-28T09:26:15.376Z,68.90
2018-06-28T09:28:46.445Z,66.50
2018-06-28T09:31:14.416Z,65.50
2018-06-28T09:33:48.039Z,66.30
2018-06-28T09:36:16.645Z,69.70
2018-06-28T09:38:44.564Z,66.90
2018-06-28T09:41:18.701Z,64.10
2018-06-28T09:43:59.311Z,65.40
2018-06-28T09:46:35.006Z,65.40
2018-06-28T09:49:16.145Z,69.00
2018-06-28T09:51:44.142Z,65.90
2018-06-28T09:54:11.014Z,67.10
2018-06-28T09:56:38.004Z,65.10
2018-06-28T09:59:04.949Z,65.30
2018-06-28T10:01:32.016Z,65.60
2018-06-28T10:04:02.273Z,66.50
2018-06-28T10:06:29.443Z,65.30
2018-06-28T10:08:57.463Z,65.60
2018-06-28T10:11:33.627Z,64.10
2018-06-28T10:14:14.983Z,66.10
2018-06-28T10:16:51.761Z,65.70
2018-06-28T10:19:29.338Z,62.50
2018-06-28T10:22:03.947Z,62.50
2018-06-28T10:24:41.705Z,65.70
2018-06-28T10:27:13.744Z,64.60
2018-06-28T10:29:53.379Z,64.80
2018-06-28T10:32:32.230Z,63.10
2018-06-28T10:34:59.982Z,65.70
2018-06-28T10:37:30.377Z,65.90
2018-06-28T10:39:57.490Z,67.30
2018-06-28T10:42:25.617Z,68.70
2018-06-28T10:44:56.700Z,68.60
2018-06-28T10:47:33.853Z,68.50
2018-06-28T10:50:09.819Z,68.70
2018-06-28T10:52:44.154Z,68.50
2018-06-28T10:55:15.419Z,68.10
2018-06-28T10:57:45.814Z,66.80
2018-06-28T11:03:08.520Z,66.20
2018-06-28T11:05:44.877Z,65.90
2018-06-28T11:08:29.286Z,64.90
2018-06-28T11:11:10.418Z,66.90
2018-06-28T11:16:33.959Z,66.70
2018-06-28T11:19:14.429Z,66.00
2018-06-28T11:21:52.098Z,67.10
2018-06-28T11:24:35.174Z,66.70
2018-06-28T11:27:16.271Z,66.40
2018-06-28T11:29:56.703Z,67.60
2018-06-28T11:32:39.754Z,66.10
2018-06-28T11:35:17.783Z,66.80
2018-06-28T11:38:00.208Z,65.90
2018-06-28T11:40:41.821Z,67.00
2018-06-28T11:43:25.637Z,68.40
2018-06-28T11:46:01.532Z,67.20
2018-06-28T11:48:31.200Z,68.20
2018-06-28T11:51:03.222Z,66.40
2018-06-28T11:53:31.194Z,68.60
2018-06-28T11:55:58.535Z,68.20
2018-06-28T11:58:29.263Z,66.40
2018-06-28T12:01:02.447Z,65.70
2018-06-28T12:03:36.258Z,66.40
2018-06-28T12:06:10.456Z,66.80
2018-06-28T12:08:44.743Z,65.30
2018-06-28T12:11:23.919Z,67.00
2018-06-28T12:14:04.472Z,68.90
2018-06-28T12:19:26.641Z,70.50
2018-06-28T12:22:07.042Z,70.80
2018-06-28T12:24:45.232Z,70.30
2018-06-28T12:32:49.427Z,66.60
2018-06-28T12:35:31.609Z,66.80
2018-06-28T12:38:14.005Z,67.70
2018-06-28T12:40:54.616Z,68.30
2018-06-28T12:46:14.255Z,67.70
2018-06-28T12:48:54.574Z,67.00
2018-06-28T12:51:39.210Z,65.80
2018-06-28T12:56:52.606Z,67.90
2018-06-28T12:59:26.847Z,66.40
2018-06-28T13:04:50.040Z,65.00
2018-06-28T13:07:29.351Z,62.70
2018-06-28T13:12:44.958Z,63.90
2018-06-28T13:15:12.811Z,64.70
2018-06-28T13:17:45.845Z,64.50
2018-06-28T13:20:17.249Z,64.50
2018-06-28T13:22:49.989Z,64.40
2018-06-28T13:25:23.175Z,64.50
2018-06-28T13:28:05.027Z,65.00
2018-06-28T13:30:47.332Z,63.70
2018-06-28T13:33:23.804Z,61.80
2018-06-28T13:38:42.486Z,61.20
2018-06-28T13:41:10.470Z,61.50
2018-06-28T13:43:47.674Z,61.60
2018-06-28T13:46:23.289Z,60.10
2018-06-28T13:49:03.117Z,61.20
2018-06-28T13:51:46.196Z,60.30
2018-06-28T13:54:27.177Z,60.30
2018-06-28T13:56:55.376Z,59.90
2018-06-28T13:59:34.166Z,60.70
2018-06-28T14:02:12.853Z,61.40
2018-06-28T14:04:51.674Z,60.80
2018-06-28T14:07:31.425Z,60.70
2018-06-28T14:10:07.869Z,60.70
2018-06-28T14:12:36.201Z,61.60
2018-06-28T14:15:04.612Z,62.10
2018-06-28T14:17:37.322Z,61.40
2018-06-28T14:20:08.805Z,62.90
2018-06-28T14:25:28.762Z,63.40
2018-06-28T14:30:35.712Z,63.80
2018-06-28T14:33:03.745Z,63.00
2018-06-28T14:35:35.557Z,63.80
2018-06-28T14:38:07.420Z,63.60
2018-06-28T14:40:34.708Z,63.50
2018-06-28T14:43:05.484Z,61.60
2018-06-28T14:45:32.796Z,61.50
2018-06-28T14:48:01.588Z,61.60
2018-06-28T14:50:32.483Z,61.30
2018-06-28T14:53:01.057Z,60.70
2018-06-28T14:55:31.060Z,61.40
2018-06-28T14:58:03.282Z,62.00
2018-06-28T15:00:30.645Z,61.10
2018-06-28T15:02:57.544Z,60.20
2018-06-28T15:05:24.507Z,59.70
2018-06-28T15:07:51.397Z,60.80
2018-06-28T15:10:27.333Z,60.70
2018-06-28T15:12:54.754Z,60.40
2018-06-28T15:15:23.492Z,61.30
2018-06-28T15:17:50.686Z,62.20
2018-06-28T15:20:19.476Z,63.60
2018-06-28T15:22:49.216Z,63.50
2018-06-28T15:25:17.413Z,63.60
2018-06-28T15:27:44.726Z,65.10
2018-06-28T15:30:11.638Z,64.30
2018-06-28T15:32:39.276Z,65.70
2018-06-28T15:35:06.215Z,65.70
2018-06-28T15:37:33.274Z,66.00
2018-06-28T15:40:00.161Z,66.70
2018-06-28T15:42:31.375Z,65.60
2018-06-28T15:44:58.798Z,65.80
2018-06-28T15:47:25.994Z,65.60
2018-06-28T15:52:35.760Z,64.70
2018-06-28T15:55:03.261Z,65.70
2018-06-28T15:57:30.830Z,66.50
2018-06-28T15:59:58.147Z,66.00
2018-06-28T16:02:25.986Z,64.50
2018-06-28T16:04:52.992Z,64.50
2018-06-28T16:07:19.968Z,64.00
2018-06-28T16:09:47.019Z,64.50
2018-06-28T16:12:14.244Z,62.40
2018-06-28T16:14:41.266Z,63.30
2018-06-28T16:17:10.949Z,62.30
2018-06-28T16:19:38.765Z,62.30
2018-06-28T16:22:06.770Z,63.30
2018-06-28T16:24:34.654Z,59.90
2018-06-28T16:27:02.057Z,59.90
2018-06-28T16:29:29.160Z,61.90
2018-06-28T16:31:56.183Z,61.10
2018-06-28T16:34:35.557Z,60.70
2018-06-28T16:37:16.064Z,60.70
2018-06-28T16:39:57.367Z,61.50
2018-06-28T16:42:35.600Z,61.70
2018-06-28T16:45:04.185Z,59.30
2018-06-28T16:47:31.449Z,59.30
2018-06-28T16:52:54.434Z,59.90
2018-06-28T16:55:24.837Z,60.50
2018-06-28T16:58:02.379Z,59.90
2018-06-28T17:00:43.155Z,59.90
2018-06-28T17:03:12.993Z,60.30
2018-06-28T17:05:54.467Z,60.20
2018-06-28T17:08:35.501Z,59.80
2018-06-28T17:11:19.472Z,60.90
2018-06-28T17:13:47.534Z,61.10
2018-06-28T17:16:16.506Z,60.90
2018-06-28T17:18:46.137Z,60.90
2018-06-28T17:21:14.926Z,60.70
2018-06-28T17:23:44.556Z,61.00
2018-06-28T17:26:14.426Z,60.60
2018-06-28T17:28:41.618Z,60.70
2018-06-28T17:31:09.891Z,60.10
2018-06-28T17:33:37.213Z,60.80
2018-06-28T17:36:04.316Z,60.50
2018-06-28T17:38:31.293Z,61.10
2018-06-28T17:41:00.785Z,61.80
2018-06-28T17:43:28.039Z,61.80
2018-06-28T17:45:55.017Z,61.60
2018-06-28T17:48:22.114Z,61.40
2018-06-28T17:50:54.039Z,62.50
2018-06-28T17:53:27.598Z,61.40
2018-06-28T17:55:59.433Z,61.50
2018-06-28T17:58:27.316Z,62.30
2018-06-28T18:00:56.205Z,61.60
2018-06-28T18:03:25.333Z,62.10
2018-06-28T18:05:54.435Z,62.40
2018-06-28T18:08:23.646Z,62.40
2018-06-28T18:10:53.735Z,62.60
2018-06-28T18:13:25.453Z,63.30
2018-06-28T18:15:52.973Z,63.30
2018-06-28T18:18:19.982Z,63.60
2018-06-28T18:20:48.081Z,63.70
2018-06-28T18:23:17.196Z,63.80
2018-06-28T18:25:44.341Z,63.80
2018-06-28T18:28:14.429Z,64.40
2018-06-28T18:30:44.469Z,64.30
2018-06-28T18:33:14.753Z,64.90
2018-06-28T18:35:46.875Z,64.70
2018-06-28T18:41:06.378Z,65.60
2018-06-28T18:43:43.876Z,66.00
2018-06-28T18:46:17.313Z,66.70
2018-06-28T18:48:49.453Z,66.20
2018-06-28T18:51:22.560Z,66.40
2018-06-28T18:54:03.295Z,67.10
2018-06-28T18:56:35.672Z,67.10
2018-06-28T18:59:05.467Z,67.30
2018-06-28T19:01:33.434Z,67.40
2018-06-28T19:04:02.946Z,67.30
2018-06-28T19:06:32.608Z,67.70
2018-06-28T19:09:04.114Z,67.60
2018-06-28T19:11:33.185Z,67.40
2018-06-28T19:14:01.890Z,68.20
2018-06-28T19:16:51.485Z,67.80
2018-06-28T19:19:21.448Z,67.70
2018-06-28T19:22:05.683Z,68.20
2018-06-28T19:24:35.517Z,68.40
2018-06-28T19:27:19.730Z,68.20
2018-06-28T19:32:51.730Z,69.60
2018-06-28T19:35:36.029Z,70.50
2018-06-28T19:38:16.704Z,71.10
2018-06-28T19:41:11.142Z,72.20
2018-06-28T19:43:54.565Z,72.60
2018-06-28T19:49:23.349Z,75.20
2018-06-28T19:52:08.243Z,75.20
2018-06-28T19:54:48.163Z,75.40
2018-06-28T19:57:30.560Z,77.30
2018-06-28T20:00:12.463Z,76.40
2018-06-28T20:03:09.369Z,78.20
2018-06-28T20:05:50.932Z,77.40
2018-06-28T20:08:31.175Z,79.10
2018-06-28T20:11:12.515Z,79.00
2018-06-28T20:13:53.718Z,78.60
2018-06-28T20:16:47.132Z,79.70
2018-06-28T20:19:42.680Z,79.20
2018-06-28T20:22:25.646Z,80.40
2018-06-28T20:25:06.981Z,81.70
2018-06-28T20:27:50.799Z,81.50
2018-06-28T20:33:27.821Z,81.90
2018-06-28T20:36:10.545Z,83.00
2018-06-28T20:38:48.582Z,83.10
2018-06-28T20:41:31.408Z,83.10
2018-06-28T20:44:10.622Z,83.50
2018-06-28T20:46:51.376Z,84.60
2018-06-28T20:49:32.900Z,85.00
2018-06-28T20:57:41.153Z,89.00
2018-06-28T21:00:22.008Z,88.80
2018-06-28T21:05:45.249Z,89.70
2018-06-28T21:08:23.682Z,89.90
2018-06-28T21:11:04.107Z,89.90
2018-06-28T21:16:30.665Z,90.00
2018-06-28T21:19:14.313Z,90.40
2018-06-28T21:21:58.316Z,91.80
2018-06-28T21:24:38.707Z,91.50
2018-06-28T21:27:20.479Z,91.20
2018-06-28T21:30:01.684Z,91.90
2018-06-28T21:32:42.462Z,92.00
2018-06-28T21:35:23.551Z,91.70
2018-06-28T21:38:02.756Z,91.90
2018-06-28T21:40:45.672Z,92.10
2018-06-28T21:46:08.049Z,92.70
2018-06-28T21:48:46.864Z,92.50
2018-06-28T21:54:16.331Z,93.20
2018-06-28T21:56:57.336Z,93.20
2018-06-28T21:59:39.578Z,93.10
2018-06-28T22:02:20.764Z,93.70
2018-06-28T22:05:04.125Z,94.10
2018-06-28T22:07:46.206Z,94.10
2018-06-28T22:13:06.405Z,93.70
2018-06-28T22:15:46.311Z,94.50
2018-06-28T22:18:28.262Z,94.30
2018-06-28T22:21:09.746Z,94.40
2018-06-28T22:23:52.790Z,95.00
2018-06-28T22:26:33.011Z,95.50
2018-06-28T22:29:09.204Z,94.80
2018-06-28T22:31:51.996Z,95.50
2018-06-28T22:34:32.709Z,95.30
2018-06-28T22:37:18.528Z,95.20
2018-06-28T22:40:00.345Z,95.80
2018-06-28T22:45:24.621Z,95.20
2018-06-28T22:48:05.055Z,95.40
2018-06-28T22:50:45.003Z,96.20
2018-06-28T22:53:25.893Z,95.90
2018-06-28T22:56:08.990Z,96.50
2018-06-28T22:58:49.872Z,96.40
2018-06-28T23:01:32.734Z,96.30
2018-06-28T23:04:14.121Z,96.40
2018-06-28T23:06:53.257Z,96.30
2018-06-28T23:14:56.040Z,96.10
2018-06-28T23:17:36.269Z,96.40
2018-06-28T23:20:17.649Z,96.40
2018-06-28T23:23:01.214Z,96.80
2018-06-28T23:25:42.960Z,97.10
2018-06-28T23:28:23.364Z,97.00
2018-06-28T23:31:03.365Z,97.60
2018-06-28T23:33:47.383Z,97.00
2018-06-28T23:36:26.352Z,97.10
2018-06-28T23:39:14.054Z,97.30
2018-06-28T23:44:40.847Z,97.90
2018-06-28T23:52:49.783Z,97.60
2018-06-28T23:55:29.549Z,98.00
2018-06-28T23:58:09.354Z,98.40
